createdAt,value
2023-04-30T00:00:03.427Z,982.39
2023-04-30T00:01:03.396Z,982.45
2023-04-30T00:02:03.103Z,982.45
2023-04-30T00:03:03.802Z,982.51
2023-04-30T00:04:03.863Z,982.59
2023-04-30T00:06:03.074Z,982.57
2023-04-30T00:07:03.235Z,982.48
2023-04-30T00:08:03.793Z,982.48
2023-04-30T00:10:03.324Z,982.51
2023-04-30T00:11:03.305Z,982.46
2023-04-30T00:12:04.138Z,982.35
2023-04-30T00:14:03.385Z,982.49
2023-04-30T00:15:03.444Z,982.43
2023-04-30T00:16:03.184Z,982.60
2023-04-30T00:17:03.771Z,982.58
2023-04-30T00:18:03.718Z,982.55
2023-04-30T00:19:03.504Z,982.49
2023-04-30T00:20:03.474Z,982.55
2023-04-30T00:21:03.456Z,982.55
2023-04-30T00:22:03.468Z,982.44
2023-04-30T00:24:02.940Z,982.55
2023-04-30T00:25:03.423Z,982.73
2023-04-30T00:26:03.472Z,982.58
2023-04-30T00:27:03.510Z,982.61
2023-04-30T00:28:02.915Z,982.61
2023-04-30T00:29:03.002Z,982.64
2023-04-30T00:30:03.409Z,982.53
2023-04-30T00:31:02.960Z,982.56
2023-04-30T00:32:03.108Z,982.73
2023-04-30T00:33:03.823Z,982.65
2023-04-30T00:34:03.551Z,982.73
2023-04-30T00:36:03.667Z,982.57
2023-04-30T00:37:03.680Z,982.57
2023-04-30T00:38:03.638Z,982.65
2023-04-30T00:40:03.765Z,982.63
2023-04-30T00:42:03.470Z,982.74
2023-04-30T00:43:03.136Z,982.57
2023-04-30T00:44:03.614Z,982.63
2023-04-30T00:46:03.337Z,982.79
2023-04-30T00:47:02.935Z,982.69
2023-04-30T00:48:03.735Z,982.75
2023-04-30T00:49:03.432Z,982.82
2023-04-30T00:50:03.034Z,982.66
2023-04-30T00:51:03.715Z,982.75
2023-04-30T00:53:03.791Z,982.80
2023-04-30T00:54:03.574Z,982.58
2023-04-30T00:55:03.081Z,982.75
2023-04-30T00:56:03.675Z,982.80
2023-04-30T00:57:03.706Z,982.89
2023-04-30T00:58:03.346Z,982.83
2023-04-30T00:59:03.504Z,982.97
2023-04-30T01:00:03.071Z,982.92
2023-04-30T01:01:03.637Z,982.78
2023-04-30T01:02:04.053Z,982.97
2023-04-30T01:03:03.571Z,982.78
2023-04-30T01:04:03.324Z,982.83
2023-04-30T01:05:04.121Z,982.84
2023-04-30T01:07:03.109Z,982.81
2023-04-30T01:08:03.751Z,982.84
2023-04-30T01:10:02.947Z,982.84
2023-04-30T01:11:02.949Z,983.01
2023-04-30T01:12:03.456Z,982.98
2023-04-30T01:14:03.590Z,982.95
2023-04-30T01:15:03.726Z,983.01
2023-04-30T01:16:03.312Z,983.04
2023-04-30T01:17:03.301Z,983.10
2023-04-30T01:18:03.072Z,982.99
2023-04-30T01:19:03.869Z,982.96
2023-04-30T01:20:03.693Z,983.02
2023-04-30T01:21:03.133Z,983.05
2023-04-30T01:22:03.833Z,982.88
2023-04-30T01:24:02.899Z,982.91
2023-04-30T01:25:03.479Z,983.08
2023-04-30T01:26:03.200Z,983.13
2023-04-30T01:27:03.672Z,983.08
2023-04-30T01:29:03.762Z,983.00
2023-04-30T01:30:03.878Z,983.22
2023-04-30T01:31:03.610Z,983.05
2023-04-30T01:32:03.091Z,983.14
2023-04-30T01:33:03.565Z,983.08
2023-04-30T01:34:03.411Z,983.17
2023-04-30T01:35:03.760Z,983.05
2023-04-30T01:36:03.943Z,983.08
2023-04-30T01:38:03.068Z,983.11
2023-04-30T01:39:03.580Z,983.08
2023-04-30T01:41:03.111Z,983.23
2023-04-30T01:42:03.775Z,983.08
2023-04-30T01:44:03.479Z,983.06
2023-04-30T01:45:03.355Z,983.17
2023-04-30T01:46:03.101Z,983.17
2023-04-30T01:47:03.168Z,983.12
2023-04-30T01:48:03.994Z,983.20
2023-04-30T01:49:03.863Z,983.20
2023-04-30T01:50:03.225Z,983.23
2023-04-30T01:51:03.779Z,983.23
2023-04-30T01:52:03.899Z,983.26
2023-04-30T01:53:03.378Z,983.29
2023-04-30T01:54:03.461Z,983.23
2023-04-30T01:55:03.041Z,983.23
2023-04-30T01:56:04.249Z,983.42
2023-04-30T01:57:03.493Z,983.23
2023-04-30T01:58:03.549Z,983.29
2023-04-30T01:59:03.523Z,983.23
2023-04-30T02:00:03.554Z,983.29
2023-04-30T02:01:03.264Z,983.18
2023-04-30T02:02:03.019Z,983.29
2023-04-30T02:03:03.622Z,983.32
2023-04-30T02:04:03.286Z,983.32
2023-04-30T02:05:03.476Z,983.36
2023-04-30T02:06:03.564Z,983.23
2023-04-30T02:07:03.164Z,983.40
2023-04-30T02:08:03.724Z,983.45
2023-04-30T02:09:03.940Z,983.51
2023-04-30T02:10:03.926Z,983.54
2023-04-30T02:11:03.538Z,983.45
2023-04-30T02:12:03.467Z,983.48
2023-04-30T02:13:03.122Z,983.37
2023-04-30T02:14:03.677Z,983.43
2023-04-30T02:16:04.023Z,983.51
2023-04-30T02:18:03.338Z,983.54
2023-04-30T02:19:03.596Z,983.43
2023-04-30T02:20:03.109Z,983.63
2023-04-30T02:21:03.756Z,983.55
2023-04-30T02:22:03.807Z,983.55
2023-04-30T02:23:03.290Z,983.49
2023-04-30T02:24:03.935Z,983.58
2023-04-30T02:26:03.468Z,983.55
2023-04-30T02:27:02.940Z,983.58
2023-04-30T02:28:02.903Z,983.55
2023-04-30T02:29:02.888Z,983.64
2023-04-30T02:30:03.030Z,983.58
2023-04-30T02:31:03.645Z,983.52
2023-04-30T02:32:03.377Z,983.67
2023-04-30T02:33:04.002Z,983.64
2023-04-30T02:34:03.835Z,983.69
2023-04-30T02:35:03.374Z,983.55
2023-04-30T02:36:03.320Z,983.58
2023-04-30T02:37:03.240Z,983.58
2023-04-30T02:38:03.787Z,983.67
2023-04-30T02:40:03.733Z,983.56
2023-04-30T02:42:03.267Z,983.59
2023-04-30T02:43:03.782Z,983.53
2023-04-30T02:45:03.058Z,983.67
2023-04-30T02:46:03.219Z,983.64
2023-04-30T02:47:03.855Z,983.56
2023-04-30T02:48:03.573Z,983.67
2023-04-30T02:49:02.995Z,983.67
2023-04-30T02:50:03.924Z,983.59
2023-04-30T02:51:03.417Z,983.73
2023-04-30T02:52:03.864Z,983.64
2023-04-30T02:53:03.849Z,983.56
2023-04-30T02:54:03.682Z,983.70
2023-04-30T02:55:03.313Z,983.64
2023-04-30T02:56:03.782Z,983.59
2023-04-30T02:58:03.828Z,983.61
2023-04-30T03:00:03.912Z,983.59
2023-04-30T03:01:03.932Z,983.59
2023-04-30T03:02:03.441Z,983.61
2023-04-30T03:03:04.084Z,983.67
2023-04-30T03:05:03.440Z,983.67
2023-04-30T03:06:03.151Z,983.64
2023-04-30T03:07:03.132Z,983.64
2023-04-30T03:08:03.182Z,983.64
2023-04-30T03:09:03.236Z,983.61
2023-04-30T03:10:03.103Z,983.64
2023-04-30T03:11:03.176Z,983.64
2023-04-30T03:12:03.695Z,983.72
2023-04-30T03:13:03.552Z,983.64
2023-04-30T03:14:03.065Z,983.64
2023-04-30T03:15:03.563Z,983.55
2023-04-30T03:17:03.704Z,983.55
2023-04-30T03:18:03.637Z,983.64
2023-04-30T03:19:03.057Z,983.69
2023-04-30T03:20:03.667Z,983.78
2023-04-30T03:21:03.594Z,983.69
2023-04-30T03:22:03.161Z,983.58
2023-04-30T03:23:03.501Z,983.58
2023-04-30T03:24:03.518Z,983.63
2023-04-30T03:26:03.683Z,983.66
2023-04-30T03:27:03.652Z,983.60
2023-04-30T03:28:03.085Z,983.57
2023-04-30T03:29:03.554Z,983.63
2023-04-30T03:31:03.914Z,983.49
2023-04-30T03:32:03.575Z,983.54
2023-04-30T03:33:03.174Z,983.65
2023-04-30T03:34:03.702Z,983.63
2023-04-30T03:36:02.906Z,983.57
2023-04-30T03:37:03.878Z,983.79
2023-04-30T03:38:03.789Z,983.71
2023-04-30T03:39:03.278Z,983.65
2023-04-30T03:40:03.782Z,983.65
2023-04-30T03:41:03.695Z,983.62
2023-04-30T03:42:03.657Z,983.56
2023-04-30T03:44:03.628Z,983.68
2023-04-30T03:45:03.674Z,983.79
2023-04-30T03:46:03.363Z,983.73
2023-04-30T03:47:03.465Z,983.65
2023-04-30T03:48:03.155Z,983.84
2023-04-30T03:49:03.270Z,983.73
2023-04-30T03:50:02.970Z,983.76
2023-04-30T03:51:03.579Z,983.61
2023-04-30T03:53:03.503Z,983.67
2023-04-30T03:55:02.949Z,983.61
2023-04-30T03:56:03.441Z,983.64
2023-04-30T03:58:03.665Z,983.87
2023-04-30T04:00:03.738Z,983.70
2023-04-30T04:02:03.761Z,983.69
2023-04-30T04:04:03.566Z,983.75
2023-04-30T04:05:03.142Z,983.75
2023-04-30T04:06:03.620Z,983.81
2023-04-30T04:07:03.545Z,983.83
2023-04-30T04:08:03.328Z,983.72
2023-04-30T04:09:03.389Z,983.81
2023-04-30T04:10:03.022Z,983.69
2023-04-30T04:11:03.980Z,983.83
2023-04-30T04:12:03.377Z,983.92
2023-04-30T04:13:03.333Z,983.89
2023-04-30T04:14:03.355Z,983.77
2023-04-30T04:15:03.811Z,983.94
2023-04-30T04:16:04.006Z,983.92
2023-04-30T04:17:03.431Z,983.92
2023-04-30T04:18:04.141Z,983.94
2023-04-30T04:20:03.027Z,983.89
2023-04-30T04:21:03.232Z,983.92
2023-04-30T04:22:03.176Z,984.03
2023-04-30T04:23:03.724Z,984.11
2023-04-30T04:24:03.760Z,984.14
2023-04-30T04:25:04.118Z,984.20
2023-04-30T04:27:03.553Z,984.05
2023-04-30T04:29:03.848Z,984.11
2023-04-30T04:31:03.311Z,984.14
2023-04-30T04:32:04.040Z,984.25
2023-04-30T04:34:03.221Z,984.02
2023-04-30T04:35:03.190Z,984.13
2023-04-30T04:36:03.401Z,984.22
2023-04-30T04:38:03.005Z,984.25
2023-04-30T04:39:03.150Z,984.24
2023-04-30T04:40:03.871Z,984.38
2023-04-30T04:42:03.874Z,984.29
2023-04-30T04:43:03.793Z,984.18
2023-04-30T04:44:03.424Z,984.17
2023-04-30T04:45:02.936Z,984.25
2023-04-30T04:46:03.927Z,984.27
2023-04-30T04:47:04.082Z,984.13
2023-04-30T04:48:03.530Z,984.24
2023-04-30T04:49:03.369Z,984.26
2023-04-30T04:50:03.901Z,984.28
2023-04-30T04:51:03.191Z,984.33
2023-04-30T04:52:03.214Z,984.35
2023-04-30T04:53:03.915Z,984.26
2023-04-30T04:54:03.798Z,984.43
2023-04-30T04:55:03.032Z,984.36
2023-04-30T04:56:03.795Z,984.44
2023-04-30T04:57:03.631Z,984.35
2023-04-30T04:58:03.528Z,984.49
2023-04-30T05:00:02.915Z,984.71
2023-04-30T05:01:03.408Z,984.68
2023-04-30T05:02:03.394Z,984.89
2023-04-30T05:03:03.859Z,984.86
2023-04-30T05:04:03.473Z,984.94
2023-04-30T05:05:03.131Z,985.11
2023-04-30T05:06:03.249Z,985.19
2023-04-30T05:07:03.150Z,985.21
2023-04-30T05:08:03.670Z,985.18
2023-04-30T05:10:02.917Z,985.40
2023-04-30T05:11:03.561Z,985.39
2023-04-30T05:13:03.661Z,985.47
2023-04-30T05:14:03.385Z,985.67
2023-04-30T05:15:03.873Z,985.67
2023-04-30T05:16:03.834Z,985.69
2023-04-30T05:18:03.646Z,985.77
2023-04-30T05:19:02.984Z,985.74
2023-04-30T05:20:03.527Z,985.71
2023-04-30T05:22:03.050Z,985.79
2023-04-30T05:23:02.954Z,985.87
2023-04-30T05:24:02.936Z,985.96
2023-04-30T05:25:03.478Z,985.98
2023-04-30T05:27:03.144Z,986.10
2023-04-30T05:28:03.592Z,986.01
2023-04-30T05:29:03.362Z,986.18
2023-04-30T05:30:03.824Z,986.12
2023-04-30T05:32:04.110Z,986.29
2023-04-30T05:33:03.780Z,986.15
2023-04-30T05:34:03.384Z,986.12
2023-04-30T05:35:03.956Z,986.32
2023-04-30T05:37:03.048Z,986.08
2023-04-30T05:38:03.185Z,986.17
2023-04-30T05:39:03.799Z,986.34
2023-04-30T05:41:03.840Z,986.19
2023-04-30T05:42:03.821Z,986.33
2023-04-30T05:43:03.753Z,986.24
2023-04-30T05:45:02.939Z,986.32
2023-04-30T05:46:03.661Z,986.38
2023-04-30T05:47:03.113Z,986.29
2023-04-30T05:48:03.777Z,986.26
2023-04-30T05:49:03.563Z,986.46
2023-04-30T05:50:03.251Z,986.37
2023-04-30T05:51:03.224Z,986.37
2023-04-30T05:52:03.821Z,986.34
2023-04-30T05:53:03.773Z,986.34
2023-04-30T05:54:03.403Z,986.33
2023-04-30T05:55:03.913Z,986.27
2023-04-30T05:57:03.572Z,986.36
2023-04-30T05:58:02.954Z,986.47
2023-04-30T05:59:03.506Z,986.38
2023-04-30T06:00:03.717Z,986.47
2023-04-30T06:01:03.880Z,986.32
2023-04-30T06:02:03.760Z,986.50
2023-04-30T06:03:03.458Z,986.55
2023-04-30T06:04:03.170Z,986.60
2023-04-30T06:05:03.974Z,986.53
2023-04-30T06:06:03.551Z,986.41
2023-04-30T06:07:03.018Z,986.50
2023-04-30T06:08:03.725Z,986.53
2023-04-30T06:09:03.445Z,986.66
2023-04-30T06:10:03.102Z,986.60
2023-04-30T06:11:03.170Z,986.83
2023-04-30T06:12:03.686Z,986.69
2023-04-30T06:13:03.940Z,986.72
2023-04-30T06:15:03.088Z,986.79
2023-04-30T06:16:04.432Z,986.82
2023-04-30T06:18:03.130Z,986.80
2023-04-30T06:19:03.707Z,986.95
2023-04-30T06:20:03.045Z,986.72
2023-04-30T06:21:03.514Z,986.69
2023-04-30T06:23:03.155Z,986.87
2023-04-30T06:24:03.245Z,986.73
2023-04-30T06:25:03.789Z,986.70
2023-04-30T06:27:03.988Z,986.62
2023-04-30T06:29:03.755Z,986.64
2023-04-30T06:30:03.571Z,986.73
2023-04-30T06:31:03.985Z,986.75
2023-04-30T06:33:03.834Z,986.80
2023-04-30T06:34:03.405Z,986.77
2023-04-30T06:35:02.956Z,986.68
2023-04-30T06:36:03.044Z,986.68
2023-04-30T06:37:03.734Z,986.59
2023-04-30T06:39:03.878Z,986.65
2023-04-30T06:40:03.588Z,986.76
2023-04-30T06:41:03.598Z,986.79
2023-04-30T06:43:03.328Z,986.70
2023-04-30T06:44:03.850Z,986.70
2023-04-30T06:46:03.518Z,986.70
2023-04-30T06:47:03.192Z,986.78
2023-04-30T06:48:04.060Z,986.73
2023-04-30T06:50:03.758Z,986.87
2023-04-30T06:51:03.506Z,986.78
2023-04-30T06:52:03.203Z,986.73
2023-04-30T06:53:03.145Z,986.67
2023-04-30T06:54:03.261Z,986.90
2023-04-30T06:55:03.819Z,986.90
2023-04-30T06:56:03.695Z,986.90
2023-04-30T06:57:03.796Z,986.99
2023-04-30T06:58:03.748Z,986.82
2023-04-30T06:59:03.326Z,986.93
2023-04-30T07:00:03.187Z,986.99
2023-04-30T07:01:03.253Z,986.97
2023-04-30T07:02:03.755Z,986.99
2023-04-30T07:03:03.929Z,986.94
2023-04-30T07:04:03.930Z,987.02
2023-04-30T07:05:03.875Z,986.94
2023-04-30T07:06:03.342Z,986.99
2023-04-30T07:07:03.370Z,987.00
2023-04-30T07:08:02.962Z,987.11
2023-04-30T07:09:03.086Z,986.85
2023-04-30T07:10:03.098Z,987.03
2023-04-30T07:11:03.020Z,986.94
2023-04-30T07:12:03.589Z,986.97
2023-04-30T07:14:03.526Z,987.03
2023-04-30T07:15:03.404Z,987.00
2023-04-30T07:16:03.474Z,986.97
2023-04-30T07:17:03.166Z,986.89
2023-04-30T07:18:03.885Z,986.94
2023-04-30T07:19:03.641Z,986.80
2023-04-30T07:20:03.242Z,986.94
2023-04-30T07:21:03.809Z,987.11
2023-04-30T07:23:03.897Z,986.88
2023-04-30T07:24:03.944Z,986.91
2023-04-30T07:25:03.816Z,986.91
2023-04-30T07:26:03.399Z,986.91
2023-04-30T07:28:03.492Z,986.83
2023-04-30T07:29:03.178Z,986.88
2023-04-30T07:30:03.771Z,987.03
2023-04-30T07:31:03.516Z,986.91
2023-04-30T07:32:03.372Z,986.88
2023-04-30T07:33:03.226Z,986.88
2023-04-30T07:34:03.135Z,986.91
2023-04-30T07:35:03.813Z,986.82
2023-04-30T07:36:03.735Z,986.99
2023-04-30T07:37:03.715Z,986.85
2023-04-30T07:38:03.904Z,986.85
2023-04-30T07:39:03.321Z,986.88
2023-04-30T07:40:03.087Z,987.02
2023-04-30T07:41:03.718Z,986.85
2023-04-30T07:43:03.913Z,986.93
2023-04-30T07:45:03.562Z,986.85
2023-04-30T07:46:03.370Z,986.96
2023-04-30T07:47:03.042Z,986.99
2023-04-30T07:48:03.776Z,986.88
2023-04-30T07:49:03.482Z,986.99
2023-04-30T07:50:03.635Z,987.08
2023-04-30T07:51:03.325Z,987.08
2023-04-30T07:52:03.809Z,987.05
2023-04-30T07:54:02.955Z,986.99
2023-04-30T07:55:03.165Z,987.13
2023-04-30T07:56:03.652Z,987.02
2023-04-30T07:58:03.701Z,987.04
2023-04-30T08:00:02.999Z,987.10
2023-04-30T08:01:03.557Z,987.07
2023-04-30T08:02:03.328Z,987.13
2023-04-30T08:03:03.979Z,987.07
2023-04-30T08:04:03.920Z,987.04
2023-04-30T08:06:03.036Z,987.13
2023-04-30T08:07:03.087Z,987.13
2023-04-30T08:08:03.804Z,987.18
2023-04-30T08:09:03.471Z,987.15
2023-04-30T08:10:03.556Z,987.13
2023-04-30T08:11:03.651Z,987.13
2023-04-30T08:12:03.196Z,987.13
2023-04-30T08:13:03.207Z,987.16
2023-04-30T08:14:03.706Z,987.33
2023-04-30T08:15:03.804Z,987.16
2023-04-30T08:16:03.822Z,987.39
2023-04-30T08:17:04.026Z,987.27
2023-04-30T08:18:03.882Z,987.33
2023-04-30T08:19:03.903Z,987.22
2023-04-30T08:20:03.451Z,987.28
2023-04-30T08:21:03.529Z,987.33
2023-04-30T08:22:02.951Z,987.19
2023-04-30T08:23:03.489Z,987.36
2023-04-30T08:24:03.400Z,987.28
2023-04-30T08:25:03.930Z,987.25
2023-04-30T08:26:03.930Z,987.25
2023-04-30T08:27:03.809Z,987.45
2023-04-30T08:28:03.590Z,987.25
2023-04-30T08:29:03.689Z,987.28
2023-04-30T08:30:03.175Z,987.17
2023-04-30T08:31:03.359Z,987.29
2023-04-30T08:32:03.387Z,987.34
2023-04-30T08:33:03.621Z,987.34
2023-04-30T08:34:03.168Z,987.43
2023-04-30T08:35:03.816Z,987.20
2023-04-30T08:36:03.463Z,987.29
2023-04-30T08:37:03.461Z,987.34
2023-04-30T08:39:03.503Z,987.43
2023-04-30T08:41:03.721Z,987.20
2023-04-30T08:43:03.177Z,987.31
2023-04-30T08:44:03.396Z,987.28
2023-04-30T08:45:03.918Z,987.51
2023-04-30T08:46:03.809Z,987.40
2023-04-30T08:47:03.299Z,987.19
2023-04-30T08:48:04.031Z,987.28
2023-04-30T08:50:03.201Z,987.28
2023-04-30T08:51:03.591Z,987.28
2023-04-30T08:53:03.097Z,987.34
2023-04-30T08:54:03.234Z,987.34
2023-04-30T08:55:03.838Z,987.34
2023-04-30T08:56:03.834Z,987.40
2023-04-30T08:57:03.529Z,987.23
2023-04-30T08:58:03.605Z,987.34
2023-04-30T08:59:03.532Z,987.34
2023-04-30T09:00:03.381Z,987.34
2023-04-30T09:01:03.399Z,987.49
2023-04-30T09:02:03.299Z,987.40
2023-04-30T09:03:03.966Z,987.43
2023-04-30T09:04:03.922Z,987.51
2023-04-30T09:05:03.431Z,987.66
2023-04-30T09:06:03.168Z,987.48
2023-04-30T09:07:05.924Z,987.60
2023-04-30T09:08:04.909Z,987.51
2023-04-30T09:10:03.609Z,987.63
2023-04-30T09:11:03.539Z,987.60
2023-04-30T09:12:03.195Z,987.62
2023-04-30T09:13:03.104Z,987.71
2023-04-30T09:14:03.599Z,987.68
2023-04-30T09:15:03.783Z,987.65
2023-04-30T09:16:03.456Z,987.74
2023-04-30T09:17:03.811Z,987.77
2023-04-30T09:18:03.322Z,987.93
2023-04-30T09:19:03.762Z,988.08
2023-04-30T09:21:03.454Z,987.96
2023-04-30T09:22:03.019Z,987.88
2023-04-30T09:23:03.044Z,987.86
2023-04-30T09:24:03.700Z,987.80
2023-04-30T09:26:03.892Z,987.74
2023-04-30T09:28:03.551Z,987.74
2023-04-30T09:29:03.129Z,987.79
2023-04-30T09:30:03.904Z,987.62
2023-04-30T09:31:03.630Z,987.76
2023-04-30T09:32:03.678Z,987.76
2023-04-30T09:33:03.278Z,987.76
2023-04-30T09:34:03.721Z,987.79
2023-04-30T09:36:03.230Z,987.82
2023-04-30T09:37:03.798Z,987.67
2023-04-30T09:38:03.814Z,987.73
2023-04-30T09:40:02.906Z,987.70
2023-04-30T09:41:03.510Z,987.73
2023-04-30T09:43:03.696Z,987.67
2023-04-30T09:45:03.783Z,987.56
2023-04-30T09:47:03.450Z,987.59
2023-04-30T09:48:17.991Z,987.53
2023-04-30T09:49:03.204Z,987.50
2023-04-30T09:50:03.580Z,987.56
2023-04-30T09:52:03.811Z,987.47
2023-04-30T09:53:03.620Z,987.53
2023-04-30T09:54:03.300Z,987.56
2023-04-30T09:55:03.275Z,987.53
2023-04-30T09:56:03.736Z,987.53
2023-04-30T09:58:02.965Z,987.33
2023-04-30T09:59:03.455Z,987.56
2023-04-30T10:00:03.477Z,987.44
2023-04-30T10:01:03.264Z,987.38
2023-04-30T10:02:03.202Z,987.35
2023-04-30T10:03:03.733Z,987.35
2023-04-30T10:04:03.919Z,987.44
2023-04-30T10:05:03.407Z,987.35
2023-04-30T10:07:03.324Z,987.55
2023-04-30T10:08:03.205Z,987.41
2023-04-30T10:09:03.074Z,987.47
2023-04-30T10:10:03.579Z,987.47
2023-04-30T10:11:03.486Z,987.44
2023-04-30T10:12:03.495Z,987.35
2023-04-30T10:13:04.156Z,987.35
2023-04-30T10:14:03.536Z,987.35
2023-04-30T10:16:03.687Z,987.30
2023-04-30T10:17:03.767Z,987.24
2023-04-30T10:18:03.217Z,987.30
2023-04-30T10:19:03.951Z,987.21
2023-04-30T10:20:03.802Z,987.29
2023-04-30T10:21:03.451Z,987.24
2023-04-30T10:22:03.471Z,987.21
2023-04-30T10:23:03.021Z,987.26
2023-04-30T10:24:03.510Z,987.29
2023-04-30T10:25:03.524Z,987.18
2023-04-30T10:26:03.109Z,987.21
2023-04-30T10:27:03.007Z,987.23
2023-04-30T10:28:05.339Z,987.12
2023-04-30T10:29:03.286Z,987.20
2023-04-30T10:30:03.189Z,987.26
2023-04-30T10:31:03.852Z,987.35
2023-04-30T10:33:03.108Z,987.14
2023-04-30T10:34:03.525Z,987.03
2023-04-30T10:36:03.051Z,987.11
2023-04-30T10:37:03.063Z,987.05
2023-04-30T10:38:03.510Z,987.05
2023-04-30T10:40:03.927Z,987.11
2023-04-30T10:41:03.464Z,986.99
2023-04-30T10:42:03.597Z,986.99
2023-04-30T10:43:03.554Z,987.08
2023-04-30T10:44:03.506Z,986.91
2023-04-30T10:45:03.197Z,987.11
2023-04-30T10:46:03.955Z,986.99
2023-04-30T10:47:03.847Z,986.94
2023-04-30T10:48:03.510Z,986.94
2023-04-30T10:49:03.145Z,986.97
2023-04-30T10:50:03.126Z,986.91
2023-04-30T10:51:03.631Z,986.88
2023-04-30T10:53:03.576Z,986.79
2023-04-30T10:54:03.265Z,986.82
2023-04-30T10:55:03.764Z,986.76
2023-04-30T10:56:03.730Z,986.84
2023-04-30T10:57:03.248Z,986.82
2023-04-30T10:58:03.762Z,986.64
2023-04-30T10:59:03.856Z,986.73
2023-04-30T11:00:03.388Z,986.64
2023-04-30T11:01:03.861Z,986.79
2023-04-30T11:02:04.070Z,986.84
2023-04-30T11:03:03.861Z,986.67
2023-04-30T11:04:03.265Z,986.84
2023-04-30T11:05:03.668Z,986.82
2023-04-30T11:06:03.959Z,986.73
2023-04-30T11:07:03.570Z,986.73
2023-04-30T11:08:03.086Z,986.82
2023-04-30T11:09:03.873Z,986.70
2023-04-30T11:10:03.378Z,986.79
2023-04-30T11:11:03.869Z,986.62
2023-04-30T11:12:03.380Z,986.71
2023-04-30T11:13:02.929Z,986.68
2023-04-30T11:14:03.459Z,986.59
2023-04-30T11:15:03.600Z,986.62
2023-04-30T11:16:03.913Z,986.62
2023-04-30T11:17:03.502Z,986.52
2023-04-30T11:19:03.134Z,986.46
2023-04-30T11:20:03.144Z,986.55
2023-04-30T11:21:03.095Z,986.59
2023-04-30T11:22:03.686Z,986.46
2023-04-30T11:23:03.455Z,986.46
2023-04-30T11:24:02.985Z,986.59
2023-04-30T11:25:03.902Z,986.59
2023-04-30T11:26:03.425Z,986.40
2023-04-30T11:27:03.252Z,986.37
2023-04-30T11:28:03.704Z,986.46
2023-04-30T11:30:02.929Z,986.43
2023-04-30T11:31:03.053Z,986.46
2023-04-30T11:32:03.710Z,986.37
2023-04-30T11:34:03.170Z,986.34
2023-04-30T11:35:03.914Z,986.43
2023-04-30T11:37:03.623Z,986.40
2023-04-30T11:38:03.105Z,986.45
2023-04-30T11:39:03.096Z,986.43
2023-04-30T11:40:03.965Z,986.51
2023-04-30T11:41:03.630Z,986.25
2023-04-30T11:42:03.788Z,986.40
2023-04-30T11:43:03.184Z,986.34
2023-04-30T11:44:03.868Z,986.37
2023-04-30T11:46:03.399Z,986.25
2023-04-30T11:47:04.095Z,986.37
2023-04-30T11:48:04.013Z,986.25
2023-04-30T11:49:03.688Z,986.34
2023-04-30T11:50:03.499Z,986.45
2023-04-30T11:51:02.919Z,986.19
2023-04-30T11:52:02.972Z,986.25
2023-04-30T11:53:03.625Z,986.08
2023-04-30T11:54:03.507Z,986.28
2023-04-30T11:55:02.962Z,986.11
2023-04-30T11:56:04.399Z,986.14
2023-04-30T11:57:03.590Z,986.34
2023-04-30T11:58:02.891Z,986.22
2023-04-30T11:59:03.085Z,986.11
2023-04-30T12:00:03.018Z,986.02
2023-04-30T12:01:03.771Z,986.08
2023-04-30T12:02:03.951Z,986.17
2023-04-30T12:03:04.450Z,985.94
2023-04-30T12:04:03.481Z,986.02
2023-04-30T12:05:02.951Z,985.99
2023-04-30T12:06:03.056Z,986.14
2023-04-30T12:07:03.606Z,986.17
2023-04-30T12:08:03.730Z,986.08
2023-04-30T12:09:03.180Z,986.11
2023-04-30T12:10:03.764Z,985.99
2023-04-30T12:11:03.664Z,985.96
2023-04-30T12:12:03.394Z,985.96
2023-04-30T12:13:03.884Z,985.96
2023-04-30T12:15:03.261Z,985.93
2023-04-30T12:16:03.293Z,985.96
2023-04-30T12:17:04.291Z,985.99
2023-04-30T12:18:03.857Z,985.90
2023-04-30T12:19:03.226Z,986.02
2023-04-30T12:20:03.888Z,985.85
2023-04-30T12:21:03.773Z,986.02
2023-04-30T12:23:03.340Z,985.88
2023-04-30T12:24:03.985Z,985.94
2023-04-30T12:25:03.118Z,985.85
2023-04-30T12:26:03.695Z,985.88
2023-04-30T12:27:03.496Z,985.91
2023-04-30T12:28:03.220Z,985.82
2023-04-30T12:29:02.937Z,985.91
2023-04-30T12:30:03.862Z,985.85
2023-04-30T12:31:03.366Z,985.93
2023-04-30T12:32:03.569Z,985.85
2023-04-30T12:33:03.170Z,985.91
2023-04-30T12:34:03.746Z,985.79
2023-04-30T12:36:03.831Z,985.91
2023-04-30T12:37:03.674Z,985.76
2023-04-30T12:38:03.189Z,985.82
2023-04-30T12:39:03.150Z,985.88
2023-04-30T12:40:03.585Z,985.79
2023-04-30T12:41:03.541Z,985.90
2023-04-30T12:42:03.698Z,985.82
2023-04-30T12:43:03.564Z,985.76
2023-04-30T12:44:03.072Z,985.79
2023-04-30T12:45:03.621Z,985.84
2023-04-30T12:47:03.153Z,985.84
2023-04-30T12:48:03.230Z,985.87
2023-04-30T12:49:03.436Z,985.84
2023-04-30T12:50:03.506Z,985.90
2023-04-30T12:52:03.751Z,985.90
2023-04-30T12:54:03.038Z,985.90
2023-04-30T12:55:03.088Z,985.96
2023-04-30T12:56:03.537Z,985.96
2023-04-30T12:58:03.732Z,985.88
2023-04-30T13:00:03.628Z,985.88
2023-04-30T13:02:03.438Z,985.93
2023-04-30T13:03:04.085Z,985.93
2023-04-30T13:04:04.113Z,985.85
2023-04-30T13:06:03.726Z,985.96
2023-04-30T13:07:03.459Z,985.73
2023-04-30T13:08:03.234Z,985.70
2023-04-30T13:09:03.090Z,985.85
2023-04-30T13:10:03.097Z,985.96
2023-04-30T13:11:03.486Z,985.90
2023-04-30T13:12:02.904Z,985.90
2023-04-30T13:13:03.775Z,985.76
2023-04-30T13:14:03.593Z,985.79
2023-04-30T13:15:03.213Z,985.73
2023-04-30T13:16:03.871Z,985.84
2023-04-30T13:17:03.634Z,985.84
2023-04-30T13:18:03.739Z,985.87
2023-04-30T13:19:03.216Z,985.76
2023-04-30T13:20:03.903Z,985.76
2023-04-30T13:21:03.016Z,985.84
2023-04-30T13:22:03.546Z,985.87
2023-04-30T13:23:03.290Z,985.78
2023-04-30T13:24:03.820Z,985.99
2023-04-30T13:26:03.810Z,985.76
2023-04-30T13:27:03.733Z,985.76
2023-04-30T13:28:03.362Z,985.78
2023-04-30T13:29:03.767Z,985.90
2023-04-30T13:30:03.599Z,985.81
2023-04-30T13:31:03.286Z,985.87
2023-04-30T13:32:03.783Z,985.90
2023-04-30T13:33:03.988Z,985.81
2023-04-30T13:35:03.544Z,985.78
2023-04-30T13:36:03.431Z,985.72
2023-04-30T13:37:03.105Z,985.84
2023-04-30T13:38:02.988Z,985.72
2023-04-30T13:39:03.146Z,985.90
2023-04-30T13:40:03.772Z,985.87
2023-04-30T13:41:03.849Z,985.81
2023-04-30T13:42:03.789Z,985.78
2023-04-30T13:43:03.278Z,985.84
2023-04-30T13:44:03.817Z,985.87
2023-04-30T13:46:03.787Z,985.93
2023-04-30T13:47:03.967Z,985.72
2023-04-30T13:48:03.927Z,985.87
2023-04-30T13:49:03.385Z,985.78
2023-04-30T13:50:03.338Z,986.01
2023-04-30T13:51:03.849Z,985.78
2023-04-30T13:53:03.449Z,985.90
2023-04-30T13:54:03.824Z,985.84
2023-04-30T13:56:02.914Z,985.73
2023-04-30T13:57:03.678Z,985.87
2023-04-30T13:59:03.916Z,985.81
2023-04-30T14:00:03.894Z,985.78
2023-04-30T14:01:03.938Z,985.78
2023-04-30T14:02:03.495Z,985.55
2023-04-30T14:03:07.266Z,985.67
2023-04-30T14:04:03.384Z,985.70
2023-04-30T14:05:07.192Z,985.73
2023-04-30T14:07:03.471Z,985.90
2023-04-30T14:08:03.319Z,985.70
2023-04-30T14:09:02.933Z,985.76
2023-04-30T14:10:03.643Z,985.93
2023-04-30T14:11:03.314Z,985.87
2023-04-30T14:12:03.068Z,985.82
2023-04-30T14:13:03.499Z,985.70
2023-04-30T14:15:03.002Z,985.82
2023-04-30T14:16:03.592Z,985.67
2023-04-30T14:17:03.154Z,985.70
2023-04-30T14:18:03.234Z,985.67
2023-04-30T14:19:03.393Z,985.73
2023-04-30T14:20:03.331Z,985.67
2023-04-30T14:21:03.821Z,985.67
2023-04-30T14:23:03.406Z,985.64
2023-04-30T14:24:03.901Z,985.58
2023-04-30T14:25:03.370Z,985.64
2023-04-30T14:26:02.939Z,985.70
2023-04-30T14:27:03.975Z,985.67
2023-04-30T14:28:03.482Z,985.58